createdAt,value
2018-08-27T00:00:07.729Z,98008.88
2018-08-27T00:02:36.822Z,98010.27
2018-08-27T00:05:06.115Z,98017.55
2018-08-27T00:07:35.350Z,98022.64
2018-08-27T00:10:04.700Z,98021.02
2018-08-27T00:12:33.983Z,98024.72
2018-08-27T00:15:03.093Z,98025.27
2018-08-27T00:17:32.195Z,98022.08
2018-08-27T00:20:01.354Z,98035.87
2018-08-27T00:22:30.480Z,98022.25
2018-08-27T00:24:59.570Z,98027.70
2018-08-27T00:27:28.670Z,98029.39
2018-08-27T00:29:57.763Z,98030.12
2018-08-27T00:32:26.902Z,98026.80
2018-08-27T00:34:56.166Z,98025.04
2018-08-27T00:37:25.294Z,98015.97
2018-08-27T00:39:54.376Z,98016.75
2018-08-27T00:42:23.490Z,98016.87
2018-08-27T00:44:53.027Z,98017.27
2018-08-27T00:47:22.518Z,98024.45
2018-08-27T00:49:51.922Z,98029.64
2018-08-27T00:52:21.060Z,98030.83
2018-08-27T00:54:50.182Z,98025.07
2018-08-27T00:57:19.631Z,98027.67
2018-08-27T00:59:48.759Z,98027.27
2018-08-27T01:02:17.905Z,98023.59
2018-08-27T01:04:47.002Z,98018.41
2018-08-27T01:07:16.113Z,98019.67
2018-08-27T01:09:45.219Z,98015.55
2018-08-27T01:12:14.315Z,98016.59
2018-08-27T01:14:43.955Z,98010.33
2018-08-27T01:17:13.049Z,98012.54
2018-08-27T01:19:42.150Z,98015.52
2018-08-27T01:22:11.378Z,98010.58
2018-08-27T01:24:40.539Z,98011.42
2018-08-27T01:27:09.679Z,98011.34
2018-08-27T01:29:38.790Z,98007.06
2018-08-27T01:32:14.674Z,98011.25
2018-08-27T01:34:44.078Z,97998.80
2018-08-27T01:37:13.932Z,97997.98
2018-08-27T01:42:18.514Z,98000.56
2018-08-27T01:44:47.688Z,98006.47
2018-08-27T01:47:16.854Z,98002.18
2018-08-27T01:49:46.022Z,97999.83
2018-08-27T01:52:15.137Z,97997.09
2018-08-27T01:54:44.502Z,97992.57
2018-08-27T01:57:13.711Z,97993.14
2018-08-27T01:59:42.991Z,97991.09
2018-08-27T02:02:12.941Z,97990.13
2018-08-27T02:04:44.177Z,97990.02
2018-08-27T02:07:14.918Z,97993.37
2018-08-27T02:09:46.055Z,97985.70
2018-08-27T02:12:15.930Z,97986.19
2018-08-27T02:14:46.072Z,97990.89
2018-08-27T02:17:18.666Z,97984.52
2018-08-27T02:19:48.261Z,97984.91
2018-08-27T02:22:17.925Z,97985.02
2018-08-27T02:24:49.374Z,97979.61
2018-08-27T02:27:18.537Z,97982.77
2018-08-27T02:29:47.909Z,97976.88
2018-08-27T02:32:17.044Z,97973.63
2018-08-27T02:34:46.963Z,97978.60
2018-08-27T02:37:16.862Z,97971.03
2018-08-27T02:39:45.991Z,97974.17
2018-08-27T02:42:15.853Z,97971.83
2018-08-27T02:44:45.054Z,97972.08
2018-08-27T02:47:14.178Z,97972.66
2018-08-27T02:49:43.759Z,97968.11
2018-08-27T02:52:13.346Z,97970.39
2018-08-27T02:54:42.729Z,97972.48
2018-08-27T02:57:11.834Z,97972.23
2018-08-27T02:59:40.985Z,97972.38
2018-08-27T03:02:10.115Z,97967.34
2018-08-27T03:04:39.319Z,97969.80
2018-08-27T03:07:08.485Z,97969.17
2018-08-27T03:09:37.612Z,97968.30
2018-08-27T03:12:07.672Z,97965.70
2018-08-27T03:14:36.804Z,97959.31
2018-08-27T03:17:05.903Z,97960.09
2018-08-27T03:19:35.046Z,97958.53
2018-08-27T03:22:04.154Z,97956.11
2018-08-27T03:24:33.326Z,97963.01
2018-08-27T03:27:02.434Z,97961.50
2018-08-27T03:29:31.541Z,97960.63
2018-08-27T03:32:00.730Z,97964.16
2018-08-27T03:34:29.859Z,97963.66
2018-08-27T03:36:59.190Z,97965.52
2018-08-27T03:39:28.354Z,97956.84
2018-08-27T03:41:57.467Z,97956.16
2018-08-27T03:44:26.609Z,97958.34
2018-08-27T03:46:56.045Z,97955.88
2018-08-27T03:49:25.170Z,97959.30
2018-08-27T03:51:54.349Z,97946.80
2018-08-27T03:54:23.654Z,97950.31
2018-08-27T03:56:52.817Z,97958.93
2018-08-27T03:59:21.942Z,97952.34
2018-08-27T04:01:51.055Z,97962.62
2018-08-27T04:04:20.154Z,97963.18
2018-08-27T04:06:49.295Z,97964.06
2018-08-27T04:09:18.442Z,97967.81
2018-08-27T04:11:47.778Z,97967.98
2018-08-27T04:14:17.216Z,97961.05
2018-08-27T04:16:46.486Z,97963.22
2018-08-27T04:19:16.308Z,97962.28
2018-08-27T04:21:45.405Z,97967.80
2018-08-27T04:24:14.514Z,97959.31
2018-08-27T04:26:43.693Z,97963.38
2018-08-27T04:29:12.801Z,97958.48
2018-08-27T04:31:41.899Z,97961.70
2018-08-27T04:34:11.026Z,97963.25
2018-08-27T04:36:40.805Z,97967.11
2018-08-27T04:39:11.144Z,97969.88
2018-08-27T04:41:40.258Z,97972.14
2018-08-27T04:44:09.744Z,97976.88
2018-08-27T04:46:38.907Z,97976.97
2018-08-27T04:49:08.022Z,97974.80
2018-08-27T04:51:37.111Z,97963.92
2018-08-27T04:54:06.745Z,97971.18
2018-08-27T04:56:35.863Z,97964.25
2018-08-27T04:59:12.246Z,97972.80
2018-08-27T05:01:41.352Z,97965.22
2018-08-27T05:04:10.478Z,97970.98
2018-08-27T05:06:39.706Z,97970.48
2018-08-27T05:09:10.128Z,97974.62
2018-08-27T05:11:40.132Z,97975.12
2018-08-27T05:14:10.769Z,97973.99
2018-08-27T05:16:40.234Z,97977.52
2018-08-27T05:19:10.717Z,97978.86
2018-08-27T05:21:39.978Z,97978.66
2018-08-27T05:24:09.228Z,97982.78
2018-08-27T05:26:38.568Z,97975.02
2018-08-27T05:29:07.313Z,97975.87
2018-08-27T05:31:36.426Z,97978.48
2018-08-27T05:34:05.799Z,97981.94
2018-08-27T05:36:34.937Z,97980.31
2018-08-27T05:39:05.147Z,97975.36
2018-08-27T05:41:34.262Z,97970.61
2018-08-27T05:44:03.414Z,97973.22
2018-08-27T05:46:32.559Z,97976.92
2018-08-27T05:49:02.017Z,97986.64
2018-08-27T05:51:31.164Z,97982.64
2018-08-27T05:54:00.294Z,97982.75
2018-08-27T05:56:29.438Z,97983.21
2018-08-27T05:58:58.598Z,97983.16
2018-08-27T06:01:28.157Z,97985.72
2018-08-27T06:03:57.606Z,97983.89
2018-08-27T06:06:26.726Z,97983.03
2018-08-27T06:08:55.933Z,97981.60
2018-08-27T06:11:25.026Z,97981.26
2018-08-27T06:13:54.219Z,97985.70
2018-08-27T06:16:23.021Z,97983.25
2018-08-27T06:18:52.078Z,97985.47
2018-08-27T06:21:22.270Z,97984.98
2018-08-27T06:23:51.972Z,97987.66
2018-08-27T06:26:21.215Z,97980.80
2018-08-27T06:28:50.354Z,97981.69
2018-08-27T06:31:19.471Z,97982.06
2018-08-27T06:33:48.606Z,97984.21
2018-08-27T06:36:17.741Z,97978.73
2018-08-27T06:38:46.877Z,97980.91
2018-08-27T06:41:15.994Z,97971.15
2018-08-27T06:43:45.118Z,97968.13
2018-08-27T06:46:14.244Z,97966.75
2018-08-27T06:48:43.354Z,97968.02
2018-08-27T06:51:12.935Z,97972.52
2018-08-27T06:53:42.086Z,97977.75
2018-08-27T06:56:11.186Z,97979.06
2018-08-27T06:58:40.305Z,97983.03
2018-08-27T07:01:09.646Z,97977.90
2018-08-27T07:03:38.844Z,97979.93
2018-08-27T07:06:07.957Z,97988.72
2018-08-27T07:08:37.785Z,97982.26
2018-08-27T07:11:07.322Z,97984.03
2018-08-27T07:13:36.505Z,97982.21
2018-08-27T07:16:05.653Z,97980.19
2018-08-27T07:18:34.905Z,97983.04
2018-08-27T07:21:04.122Z,97975.62
2018-08-27T07:23:33.433Z,97982.66
2018-08-27T07:26:02.669Z,97979.14
2018-08-27T07:28:31.893Z,97982.55
2018-08-27T07:31:01.221Z,97985.95
2018-08-27T07:33:30.413Z,97983.13
2018-08-27T07:35:59.501Z,97976.75
2018-08-27T07:38:28.637Z,97981.43
2018-08-27T07:40:57.922Z,97983.59
2018-08-27T07:43:27.083Z,97984.82
2018-08-27T07:45:56.197Z,97991.71
2018-08-27T07:48:25.302Z,97988.58
2018-08-27T07:50:54.857Z,97986.83
2018-08-27T07:53:24.021Z,97985.42
2018-08-27T07:55:53.138Z,97988.42
2018-08-27T07:58:22.354Z,97986.89
2018-08-27T08:00:51.371Z,97983.81
2018-08-27T08:03:21.098Z,97996.19
2018-08-27T08:05:50.279Z,97991.19
2018-08-27T08:08:19.397Z,97990.53
2018-08-27T08:10:48.518Z,97998.66
2018-08-27T08:13:17.674Z,97992.20
2018-08-27T08:15:46.902Z,97996.51
2018-08-27T08:18:18.107Z,98004.11
2018-08-27T08:20:48.751Z,97990.86
2018-08-27T08:23:18.290Z,97998.92
2018-08-27T08:25:48.163Z,97999.56
2018-08-27T08:28:17.302Z,98000.48
2018-08-27T08:30:46.423Z,97998.94
2018-08-27T08:33:15.580Z,97989.50
2018-08-27T08:35:45.194Z,97994.72
2018-08-27T08:38:14.364Z,97996.48
2018-08-27T08:40:43.466Z,97996.87
2018-08-27T08:43:12.618Z,98005.18
2018-08-27T08:45:41.778Z,98011.11
2018-08-27T08:48:10.893Z,98005.37
2018-08-27T08:50:40.024Z,98000.11
2018-08-27T08:53:09.187Z,97991.44
2018-08-27T08:55:38.343Z,97986.72
2018-08-27T08:58:07.614Z,97989.00
2018-08-27T09:00:36.805Z,97992.04
2018-08-27T09:03:05.930Z,97991.05
2018-08-27T09:05:35.077Z,97987.63
2018-08-27T09:08:04.230Z,97990.48
2018-08-27T09:10:33.302Z,97993.97
2018-08-27T09:13:02.459Z,97994.11
2018-08-27T09:15:31.569Z,97999.62
2018-08-27T09:18:01.441Z,98000.80
2018-08-27T09:20:31.530Z,97996.45
2018-08-27T09:23:00.678Z,98002.50
2018-08-27T09:25:29.812Z,98000.72
2018-08-27T09:27:58.958Z,98004.92
2018-08-27T09:30:28.069Z,98001.58
2018-08-27T09:32:57.573Z,98004.66
2018-08-27T09:35:26.734Z,98004.45
2018-08-27T09:37:55.846Z,97999.52
2018-08-27T09:40:25.778Z,98007.48
2018-08-27T09:42:54.915Z,98007.58
2018-08-27T09:45:24.031Z,98004.84
2018-08-27T09:47:53.386Z,98000.59
2018-08-27T09:50:22.132Z,98002.25
2018-08-27T09:52:51.278Z,98007.38
2018-08-27T09:55:20.354Z,98001.49
2018-08-27T09:57:49.487Z,97998.42
2018-08-27T10:02:24.805Z,97999.36
2018-08-27T10:04:53.977Z,97998.23
2018-08-27T10:07:22.790Z,97991.22
2018-08-27T10:09:51.942Z,97988.53
2018-08-27T10:12:21.097Z,97978.83
2018-08-27T10:14:50.244Z,97986.69
2018-08-27T10:17:19.337Z,97984.31
2018-08-27T10:19:49.193Z,97985.76
2018-08-27T10:22:18.604Z,97988.53
2018-08-27T10:24:47.176Z,97982.52
2018-08-27T10:27:16.285Z,97988.59
2018-08-27T10:29:45.437Z,97989.48
2018-08-27T10:32:15.229Z,97989.89
2018-08-27T10:34:44.458Z,97985.31
2018-08-27T10:37:13.637Z,97976.98
2018-08-27T10:39:42.774Z,97974.62
2018-08-27T10:42:11.905Z,97974.50
2018-08-27T10:44:41.034Z,97969.72
2018-08-27T10:47:10.890Z,97968.41
2018-08-27T10:49:40.014Z,97972.63
2018-08-27T10:52:09.866Z,97967.62
2018-08-27T10:54:39.510Z,97968.91
2018-08-27T10:57:08.801Z,97965.13
2018-08-27T10:59:37.927Z,97961.81
2018-08-27T11:02:07.125Z,97965.95
2018-08-27T11:04:36.222Z,97957.98
2018-08-27T11:07:05.343Z,97964.78
2018-08-27T11:09:34.463Z,97967.58
2018-08-27T11:12:04.267Z,97969.41
2018-08-27T11:14:33.403Z,97965.69
2018-08-27T11:17:02.566Z,97956.64
2018-08-27T11:19:32.264Z,97965.44
2018-08-27T11:22:01.334Z,97960.95
2018-08-27T11:24:30.689Z,97968.44
2018-08-27T11:27:00.318Z,97964.37
2018-08-27T11:29:29.464Z,97965.59
2018-08-27T11:31:58.667Z,97969.07
2018-08-27T11:34:27.806Z,97961.45
2018-08-27T11:36:56.921Z,97966.66
2018-08-27T11:39:26.043Z,97967.20
2018-08-27T11:41:55.133Z,97967.91
2018-08-27T11:44:24.261Z,97967.61
2018-08-27T11:46:54.106Z,97972.69
2018-08-27T11:49:23.228Z,97968.08
2018-08-27T11:51:52.373Z,97968.84
2018-08-27T11:54:21.453Z,97966.47
2018-08-27T11:56:50.571Z,97966.30
2018-08-27T11:59:19.698Z,97972.77
2018-08-27T12:01:48.821Z,97972.59
2018-08-27T12:04:17.930Z,97970.41
2018-08-27T12:06:47.116Z,97970.34
2018-08-27T12:09:16.202Z,97970.60
2018-08-27T12:11:45.298Z,97968.38
2018-08-27T12:14:14.443Z,97968.04
2018-08-27T12:16:43.612Z,97965.03
2018-08-27T12:19:13.142Z,97960.59
2018-08-27T12:21:43.468Z,97949.13
2018-08-27T12:24:12.617Z,97950.37
2018-08-27T12:26:41.778Z,97954.77
2018-08-27T12:29:11.300Z,97947.43
2018-08-27T12:31:40.874Z,97945.45
2018-08-27T12:34:10.034Z,97950.84
2018-08-27T12:36:39.254Z,97957.98
2018-08-27T12:39:09.798Z,97957.87
2018-08-27T12:41:40.319Z,97956.72
2018-08-27T12:44:09.473Z,97964.28
2018-08-27T12:46:38.650Z,97957.95
2018-08-27T12:49:07.876Z,97960.72
2018-08-27T12:51:37.029Z,97959.70
2018-08-27T12:54:06.218Z,97967.76
2018-08-27T12:56:35.370Z,97968.06
2018-08-27T12:59:05.438Z,97969.73
2018-08-27T13:01:34.590Z,97974.37
2018-08-27T13:04:03.712Z,97974.29
2018-08-27T13:06:32.959Z,97964.00
2018-08-27T13:09:02.190Z,97964.01
2018-08-27T13:11:31.510Z,97965.66
2018-08-27T13:14:00.582Z,97967.34
2018-08-27T13:16:29.397Z,97967.97
2018-08-27T13:18:58.815Z,97966.08
2018-08-27T13:21:27.966Z,97960.58
2018-08-27T13:23:57.233Z,97965.47
2018-08-27T13:26:26.359Z,97964.95
2018-08-27T13:28:55.514Z,97962.82
2018-08-27T13:31:25.263Z,97965.03
2018-08-27T13:33:54.479Z,97960.63
2018-08-27T13:36:23.619Z,97962.06
2018-08-27T13:38:53.231Z,97959.59
2018-08-27T13:41:22.343Z,97970.25
2018-08-27T13:43:51.465Z,97961.81
2018-08-27T13:46:20.580Z,97965.70
2018-08-27T13:48:49.842Z,97964.98
2018-08-27T13:51:18.937Z,97966.56
2018-08-27T13:53:48.082Z,97962.44
2018-08-27T13:56:17.353Z,97975.08
2018-08-27T13:58:46.530Z,97976.39
2018-08-27T14:01:15.701Z,97968.83
2018-08-27T14:03:44.824Z,97977.66
2018-08-27T14:06:13.998Z,97974.48
2018-08-27T14:08:43.096Z,97972.19
2018-08-27T14:11:12.257Z,97975.75
2018-08-27T14:13:41.450Z,97982.20
2018-08-27T14:16:10.578Z,97986.40
2018-08-27T14:18:40.054Z,97981.03
2018-08-27T14:23:47.870Z,97979.96
2018-08-27T14:26:17.035Z,97975.91
2018-08-27T14:28:46.118Z,97975.08
2018-08-27T14:31:15.666Z,97967.16
2018-08-27T14:33:45.074Z,97972.69
2018-08-27T14:36:14.158Z,97975.73
2018-08-27T14:38:43.310Z,97975.12
2018-08-27T14:41:12.526Z,97983.24
2018-08-27T14:43:41.613Z,97975.58
2018-08-27T14:46:10.814Z,97975.27
2018-08-27T14:48:40.047Z,97977.23
2018-08-27T14:51:09.382Z,97968.62
2018-08-27T14:53:38.737Z,97971.44
2018-08-27T14:56:07.943Z,97974.23
2018-08-27T14:58:37.127Z,97973.91
2018-08-27T15:01:08.338Z,97956.80
2018-08-27T15:03:37.896Z,97961.88
2018-08-27T15:06:07.166Z,97958.89
2018-08-27T15:08:36.658Z,97963.42
2018-08-27T15:11:05.999Z,97960.97
2018-08-27T15:13:35.253Z,97966.70
2018-08-27T15:16:04.405Z,97973.30
2018-08-27T15:18:33.538Z,97974.20
2018-08-27T15:21:02.663Z,97974.61
2018-08-27T15:23:31.942Z,97976.66
2018-08-27T15:26:00.883Z,97973.23
2018-08-27T15:28:30.090Z,97969.85
2018-08-27T15:30:59.247Z,97972.70
2018-08-27T15:33:28.386Z,97976.03
2018-08-27T15:35:58.202Z,97976.98
2018-08-27T15:38:27.597Z,97978.75
2018-08-27T15:40:56.633Z,97990.88
2018-08-27T15:43:25.825Z,97990.88
2018-08-27T15:46:00.242Z,97995.95
2018-08-27T15:48:29.418Z,97996.95
2018-08-27T15:50:58.750Z,98003.26
2018-08-27T15:53:27.740Z,97995.29
2018-08-27T15:55:56.874Z,98003.01
2018-08-27T15:58:26.130Z,97997.66
2018-08-27T16:00:55.314Z,97991.45
2018-08-27T16:03:24.422Z,97996.59
2018-08-27T16:05:53.654Z,97991.39
2018-08-27T16:08:22.804Z,97996.94
2018-08-27T16:10:51.913Z,98000.05
2018-08-27T16:13:21.003Z,97999.44
2018-08-27T16:15:50.878Z,98002.15
2018-08-27T16:18:19.998Z,98002.77
2018-08-27T16:20:49.350Z,98006.28
2018-08-27T16:23:19.069Z,98015.55
2018-08-27T16:25:48.258Z,98017.47
2018-08-27T16:28:17.458Z,98005.25
2018-08-27T16:30:46.510Z,98012.08
2018-08-27T16:33:15.649Z,98009.39
2018-08-27T16:35:45.183Z,98014.24
2018-08-27T16:38:14.338Z,98010.72
2018-08-27T16:40:43.450Z,98014.12
2018-08-27T16:43:12.594Z,98006.55
2018-08-27T16:45:41.780Z,98011.86
2018-08-27T16:48:10.839Z,98014.84
2018-08-27T16:50:40.011Z,98009.58
2018-08-27T16:53:09.215Z,98021.71
2018-08-27T16:55:38.498Z,98019.42
2018-08-27T16:58:07.773Z,98018.77
2018-08-27T17:00:37.019Z,98024.38
2018-08-27T17:03:06.271Z,98024.94
2018-08-27T17:05:35.510Z,98022.17
2018-08-27T17:08:05.852Z,98029.76
2018-08-27T17:10:34.989Z,98032.81
2018-08-27T17:13:04.106Z,98034.74
2018-08-27T17:15:33.782Z,98038.87
2018-08-27T17:18:02.897Z,98043.22
2018-08-27T17:20:32.018Z,98047.51
2018-08-27T17:23:01.171Z,98049.69
2018-08-27T17:25:30.410Z,98045.92
2018-08-27T17:27:59.849Z,98048.22
2018-08-27T17:30:29.033Z,98048.58
2018-08-27T17:32:58.314Z,98056.86
2018-08-27T17:35:27.515Z,98060.29
2018-08-27T17:37:56.991Z,98056.53
2018-08-27T17:40:26.171Z,98067.66
2018-08-27T17:42:55.286Z,98069.73
2018-08-27T17:45:24.438Z,98075.52
2018-08-27T17:47:53.549Z,98079.75
2018-08-27T17:50:22.759Z,98075.64
2018-08-27T17:52:51.909Z,98073.78
2018-08-27T17:55:21.030Z,98075.37
2018-08-27T17:57:50.373Z,98088.36
2018-08-27T18:00:19.612Z,98090.73
2018-08-27T18:02:49.298Z,98092.10
2018-08-27T18:05:18.466Z,98097.28
2018-08-27T18:07:47.605Z,98095.23
2018-08-27T18:10:17.446Z,98101.72
2018-08-27T18:12:46.582Z,98104.88
2018-08-27T18:15:15.703Z,98106.19
2018-08-27T18:17:44.870Z,98110.06
2018-08-27T18:20:13.997Z,98108.25
2018-08-27T18:22:43.274Z,98116.83
2018-08-27T18:25:13.205Z,98120.18
2018-08-27T18:27:42.221Z,98123.05
2018-08-27T18:30:11.851Z,98120.98
2018-08-27T18:32:41.002Z,98122.47
2018-08-27T18:35:10.119Z,98130.52
2018-08-27T18:37:39.673Z,98146.83
2018-08-27T18:40:08.834Z,98140.86
2018-08-27T18:42:37.949Z,98150.73
2018-08-27T18:45:07.137Z,98154.09
2018-08-27T18:47:36.254Z,98149.66
2018-08-27T18:50:05.648Z,98157.70
2018-08-27T18:52:34.775Z,98153.55
2018-08-27T18:55:03.934Z,98161.31
2018-08-27T18:57:33.848Z,98160.80
2018-08-27T19:00:02.934Z,98165.70
2018-08-27T19:02:32.106Z,98172.45
2018-08-27T19:05:01.236Z,98169.59
2018-08-27T19:07:30.358Z,98181.77
2018-08-27T19:09:59.581Z,98182.81
2018-08-27T19:12:28.834Z,98189.29
2018-08-27T19:14:57.953Z,98195.23
2018-08-27T19:17:27.438Z,98201.22
2018-08-27T19:19:56.542Z,98207.46
2018-08-27T19:22:25.691Z,98201.96
2018-08-27T19:24:54.829Z,98212.58
2018-08-27T19:27:24.039Z,98212.30
2018-08-27T19:29:53.212Z,98211.25
2018-08-27T19:32:22.309Z,98207.58
2018-08-27T19:34:51.435Z,98210.66
2018-08-27T19:37:20.852Z,98207.02
2018-08-27T19:39:49.870Z,98212.69
2018-08-27T19:42:18.973Z,98215.27
2018-08-27T19:44:48.143Z,98218.09
2018-08-27T19:47:17.378Z,98221.74
2018-08-27T19:49:46.503Z,98220.64
2018-08-27T19:52:15.645Z,98229.91
2018-08-27T19:54:44.782Z,98220.56
2018-08-27T19:57:13.889Z,98227.28
2018-08-27T19:59:43.488Z,98222.59
2018-08-27T20:02:12.616Z,98223.83
2018-08-27T20:04:41.963Z,98224.86
2018-08-27T20:07:11.167Z,98227.17
2018-08-27T20:09:40.374Z,98233.30
2018-08-27T20:12:09.697Z,98230.45
2018-08-27T20:14:38.847Z,98237.91
2018-08-27T20:17:07.974Z,98239.19
2018-08-27T20:19:37.100Z,98236.55
2018-08-27T20:22:08.774Z,98237.80
2018-08-27T20:24:37.982Z,98236.25
2018-08-27T20:27:07.548Z,98234.41
2018-08-27T20:29:36.664Z,98239.00
2018-08-27T20:32:06.713Z,98236.97
2018-08-27T20:34:35.858Z,98239.47
2018-08-27T20:37:04.991Z,98235.10
2018-08-27T20:39:34.194Z,98239.31
2018-08-27T20:42:03.254Z,98242.20
2018-08-27T20:44:32.374Z,98242.98
2018-08-27T20:47:01.936Z,98244.23
2018-08-27T20:49:30.558Z,98242.17
2018-08-27T20:52:00.069Z,98238.27
2018-08-27T20:54:29.283Z,98240.78
2018-08-27T20:56:58.450Z,98240.57
2018-08-27T20:59:28.226Z,98234.72
2018-08-27T21:01:57.366Z,98240.22
2018-08-27T21:04:26.458Z,98247.84
2018-08-27T21:06:55.790Z,98263.32
2018-08-27T21:09:24.915Z,98265.41
2018-08-27T21:11:54.026Z,98261.85
2018-08-27T21:15:08.074Z,98271.87
2018-08-27T21:17:37.832Z,98271.86
2018-08-27T21:20:08.607Z,98267.92
2018-08-27T21:22:37.770Z,98271.13
2018-08-27T21:25:07.602Z,98272.23
2018-08-27T21:27:37.297Z,98273.09
2018-08-27T21:30:09.009Z,98276.08
2018-08-27T21:32:38.144Z,98271.17
2018-08-27T21:35:07.262Z,98271.39
2018-08-27T21:37:37.130Z,98271.87
2018-08-27T21:40:06.245Z,98278.52
2018-08-27T21:42:35.793Z,98274.34
2018-08-27T21:45:05.074Z,98277.72
2018-08-27T21:47:34.336Z,98282.27
2018-08-27T21:50:03.506Z,98284.25
2018-08-27T21:52:33.402Z,98280.47
2018-08-27T21:55:02.501Z,98280.51
2018-08-27T21:57:32.437Z,98288.86
2018-08-27T22:00:02.346Z,98287.86
2018-08-27T22:02:37.325Z,98285.93
2018-08-27T22:05:06.962Z,98282.62
2018-08-27T22:07:36.061Z,98289.54
2018-08-27T22:10:05.166Z,98287.22
2018-08-27T22:12:34.274Z,98288.54
2018-08-27T22:15:03.429Z,98290.28
2018-08-27T22:17:32.501Z,98293.20
2018-08-27T22:20:01.590Z,98293.20
2018-08-27T22:22:30.683Z,98296.59
2018-08-27T22:24:59.757Z,98294.86
2018-08-27T22:27:28.930Z,98297.33
2018-08-27T22:29:58.009Z,98302.19
2018-08-27T22:32:27.087Z,98297.23
2018-08-27T22:34:56.704Z,98297.84
2018-08-27T22:37:26.065Z,98295.22
2018-08-27T22:39:55.157Z,98304.95
2018-08-27T22:42:24.254Z,98304.59
2018-08-27T22:44:53.350Z,98302.06
2018-08-27T22:47:22.457Z,98306.45
2018-08-27T22:49:51.549Z,98306.14
2018-08-27T22:52:20.621Z,98304.84
2018-08-27T22:54:49.701Z,98305.62
2018-08-27T22:57:18.782Z,98303.13
2018-08-27T22:59:47.891Z,98306.79
2018-08-27T23:02:21.938Z,98305.77
2018-08-27T23:04:57.673Z,98311.70
2018-08-27T23:07:28.804Z,98309.03
2018-08-27T23:09:58.205Z,98313.03
2018-08-27T23:12:27.293Z,98312.47
2018-08-27T23:14:56.386Z,98313.62
2018-08-27T23:17:25.469Z,98324.98
2018-08-27T23:19:54.566Z,98322.80
2018-08-27T23:22:23.645Z,98316.90
2018-08-27T23:24:52.758Z,98324.95
2018-08-27T23:27:21.854Z,98326.10
2018-08-27T23:29:50.941Z,98330.88
2018-08-27T23:32:20.067Z,98322.86
2018-08-27T23:34:49.149Z,98320.46
2018-08-27T23:37:18.343Z,98332.64
2018-08-27T23:39:47.583Z,98334.83
2018-08-27T23:42:16.627Z,98338.43
2018-08-27T23:44:45.789Z,98341.34
2018-08-27T23:47:14.937Z,98345.16
2018-08-27T23:49:44.115Z,98346.03
2018-08-27T23:52:13.607Z,98348.61
2018-08-27T23:54:42.940Z,98350.97
2018-08-27T23:57:12.632Z,98353.62
2018-08-27T23:59:41.785Z,98354.47
